createdAt,value
2024-05-09T00:00:35.285Z,102047.98
2024-05-09T00:04:44.096Z,102045.95
2024-05-09T00:08:23.447Z,102051.82
2024-05-09T00:11:53.598Z,102055.73
2024-05-09T00:15:24.021Z,102052.09
2024-05-09T00:18:54.823Z,102053.48
2024-05-09T00:22:22.778Z,102059.73
2024-05-09T00:26:11.930Z,102054.66
2024-05-09T00:29:49.838Z,102053.64
2024-05-09T00:33:30.136Z,102051.74
2024-05-09T00:37:15.718Z,102051.70
2024-05-09T00:41:04.117Z,102052.46
2024-05-09T00:44:35.027Z,102055.56
2024-05-09T00:48:21.386Z,102059.91
2024-05-09T00:52:09.430Z,102059.49
2024-05-09T00:55:56.228Z,102058.74
2024-05-09T00:59:23.743Z,102057.96
2024-05-09T01:02:51.164Z,102054.63
2024-05-09T01:06:09.299Z,102052.04
2024-05-09T01:09:34.932Z,102055.41
2024-05-09T01:13:23.302Z,102055.84
2024-05-09T01:17:01.805Z,102055.59
2024-05-09T01:20:49.795Z,102056.43
2024-05-09T01:24:37.973Z,102060.58
2024-05-09T01:28:02.163Z,102063.86
2024-05-09T01:31:17.801Z,102058.27
2024-05-09T01:34:56.743Z,102054.68
2024-05-09T01:38:44.638Z,102052.37
2024-05-09T01:42:32.802Z,102057.68
2024-05-09T01:46:14.209Z,102061.84
2024-05-09T01:50:02.089Z,102059.83
2024-05-09T01:53:35.638Z,102064.55
2024-05-09T01:56:59.816Z,102068.27
2024-05-09T02:00:41.918Z,102063.42
2024-05-09T02:04:25.501Z,102062.73
2024-05-09T02:08:07.334Z,102063.91
2024-05-09T02:18:34.458Z,102049.67
2024-05-09T02:23:03.597Z,102047.95
2024-05-09T02:27:17.351Z,102051.27
2024-05-09T02:31:39.831Z,102052.11
2024-05-09T02:35:49.575Z,102049.14
2024-05-09T02:40:11.714Z,102048.52
2024-05-09T02:44:24.497Z,102050.73
2024-05-09T02:48:53.620Z,102052.78
2024-05-09T02:52:44.534Z,102051.95
2024-05-09T02:57:17.232Z,102056.14
2024-05-09T03:01:46.341Z,102057.19
2024-05-09T03:05:57.583Z,102059.38
2024-05-09T03:10:28.997Z,102056.98
2024-05-09T03:14:58.074Z,102057.98
2024-05-09T03:18:47.888Z,102066.58
2024-05-09T03:23:18.069Z,102067.85
2024-05-09T03:27:28.466Z,102071.35
2024-05-09T03:31:57.745Z,102071.74
2024-05-09T03:36:11.494Z,102074.27
2024-05-09T03:40:42.592Z,102068.96
2024-05-09T03:45:38.615Z,102064.49
2024-05-09T03:49:12.131Z,102057.58
2024-05-09T03:53:01.338Z,102051.81
2024-05-09T03:56:40.351Z,102051.21
2024-05-09T04:00:26.473Z,102049.15
2024-05-09T04:04:03.657Z,102050.52
2024-05-09T04:07:29.422Z,102056.38
2024-05-09T04:10:57.178Z,102056.63
2024-05-09T04:14:39.414Z,102060.75
2024-05-09T04:18:28.010Z,102061.48
2024-05-09T04:21:58.994Z,102063.93
2024-05-09T04:25:33.163Z,102066.35
2024-05-09T04:28:44.009Z,102062.48
2024-05-09T04:32:05.612Z,102059.00
2024-05-09T04:35:14.284Z,102059.27
2024-05-09T04:38:32.928Z,102060.13
2024-05-09T04:42:09.281Z,102055.59
2024-05-09T04:45:47.262Z,102057.29
2024-05-09T04:49:28.559Z,102059.81
2024-05-09T04:53:17.523Z,102060.52
2024-05-09T04:57:05.717Z,102057.84
2024-05-09T05:00:35.334Z,102062.65
2024-05-09T05:04:18.440Z,102065.48
2024-05-09T05:08:07.871Z,102060.52
2024-05-09T05:12:01.794Z,102056.22
2024-05-09T05:15:21.001Z,102057.48
2024-05-09T05:18:57.622Z,102063.44
2024-05-09T05:22:38.294Z,102064.64
2024-05-09T05:26:26.163Z,102067.45
2024-05-09T05:30:05.896Z,102070.77
2024-05-09T05:36:35.728Z,102061.34
2024-05-09T05:41:04.943Z,102062.48
2024-05-09T05:45:36.222Z,102060.08
2024-05-09T05:50:17.605Z,102056.48
2024-05-09T05:54:36.403Z,102052.30
2024-05-09T05:58:56.665Z,102050.58
2024-05-09T06:02:45.826Z,102052.48
2024-05-09T06:07:17.928Z,102058.46
2024-05-09T06:11:47.390Z,102058.14
2024-05-09T06:16:17.376Z,102061.56
2024-05-09T06:20:48.104Z,102059.75
2024-05-09T06:25:17.013Z,102055.45
2024-05-09T06:29:46.519Z,102056.19
2024-05-09T06:34:22.612Z,102053.73
2024-05-09T06:38:50.733Z,102048.48
2024-05-09T06:43:01.467Z,102049.98
2024-05-09T06:47:32.599Z,102046.40
2024-05-09T06:52:03.028Z,102044.73
2024-05-09T06:56:32.156Z,102043.80
2024-05-09T07:01:01.189Z,102039.73
2024-05-09T07:05:31.446Z,102044.82
2024-05-09T07:09:50.561Z,102036.10
2024-05-09T07:14:21.896Z,102026.85
2024-05-09T07:18:33.795Z,102025.81
2024-05-09T07:23:07.540Z,102028.59
2024-05-09T07:27:42.163Z,102023.73
2024-05-09T07:32:13.129Z,102020.47
2024-05-09T07:36:42.400Z,102021.84
2024-05-09T07:41:13.372Z,102023.33
2024-05-09T07:45:51.291Z,102020.58
2024-05-09T07:54:44.962Z,102012.98
2024-05-09T07:59:15.822Z,102015.34
2024-05-09T08:03:46.657Z,102011.70
2024-05-09T08:08:15.997Z,102004.55
2024-05-09T08:12:48.659Z,102002.21
2024-05-09T08:17:20.220Z,101997.17
2024-05-09T08:21:52.926Z,101993.64
2024-05-09T08:26:22.422Z,101983.69
2024-05-09T08:30:18.805Z,101984.85
2024-05-09T08:34:46.383Z,101979.69
2024-05-09T08:39:17.861Z,101982.47
2024-05-09T08:43:49.924Z,101978.67
2024-05-09T08:48:21.374Z,101979.41
2024-05-09T08:52:50.811Z,101982.89
2024-05-09T08:57:04.688Z,101977.72
2024-05-09T09:01:35.442Z,101979.66
2024-05-09T09:06:06.802Z,101979.46
2024-05-09T09:10:36.987Z,101980.46
2024-05-09T09:18:32.322Z,101973.00
2024-05-09T09:22:21.228Z,101968.11
2024-05-09T09:25:30.086Z,101972.45
2024-05-09T09:29:16.571Z,101978.46
2024-05-09T09:32:34.918Z,101974.92
2024-05-09T09:35:38.273Z,101971.02
2024-05-09T09:39:02.972Z,101974.85
2024-05-09T09:42:30.620Z,101974.70
2024-05-09T09:46:00.356Z,101975.10
2024-05-09T09:49:31.829Z,101975.60
2024-05-09T09:53:10.521Z,101975.87
2024-05-09T09:56:49.984Z,101971.46
2024-05-09T10:00:33.400Z,101974.95
2024-05-09T10:04:18.801Z,101972.41
2024-05-09T10:07:48.071Z,101971.80
2024-05-09T10:11:22.691Z,101969.75
2024-05-09T10:14:51.932Z,101975.31
2024-05-09T10:18:35.532Z,101970.73
2024-05-09T10:22:05.329Z,101963.39
2024-05-09T10:25:32.395Z,101971.41
2024-05-09T10:28:46.412Z,101968.77
2024-05-09T10:32:17.141Z,101960.46
2024-05-09T10:35:49.288Z,101960.98
2024-05-09T10:39:04.624Z,101957.45
2024-05-09T10:42:51.431Z,101958.35
2024-05-09T10:46:22.011Z,101954.81
2024-05-09T10:49:37.567Z,101955.39
2024-05-09T10:53:25.733Z,101954.17
2024-05-09T10:56:49.741Z,101952.52
2024-05-09T11:00:27.750Z,101950.62
2024-05-09T11:04:05.014Z,101947.82
2024-05-09T11:07:33.956Z,101942.14
2024-05-09T11:11:13.453Z,101944.27
2024-05-09T11:15:02.834Z,101947.76
2024-05-09T11:18:33.444Z,101947.20
2024-05-09T11:22:24.398Z,101940.90
2024-05-09T11:26:10.329Z,101934.70
2024-05-09T11:30:01.121Z,101927.13
2024-05-09T11:33:50.000Z,101923.16
2024-05-09T11:37:37.372Z,101920.92
2024-05-09T11:40:55.181Z,101913.45
2024-05-09T11:44:19.007Z,101907.57
2024-05-09T11:47:34.023Z,101913.15
2024-05-09T11:51:00.956Z,101923.55
2024-05-09T11:54:40.140Z,101915.42
2024-05-09T11:58:12.444Z,101918.20
2024-05-09T12:01:38.720Z,101912.45
2024-05-09T12:05:00.062Z,101906.48
2024-05-09T12:08:37.473Z,101907.46
2024-05-09T12:12:21.402Z,101901.46
2024-05-09T12:15:58.081Z,101893.41
2024-05-09T12:19:34.069Z,101901.83
2024-05-09T12:22:54.778Z,101911.73
2024-05-09T12:26:44.010Z,101910.77
2024-05-09T12:29:46.762Z,101909.52
2024-05-09T12:33:15.661Z,101905.20
2024-05-09T12:36:55.249Z,101894.61
2024-05-09T12:40:35.627Z,101883.19
2024-05-09T12:44:22.849Z,101872.65
2024-05-09T12:48:08.261Z,101869.53
2024-05-09T12:51:35.738Z,101865.44
2024-05-09T12:55:12.938Z,101866.93
2024-05-09T12:58:19.552Z,101870.02
2024-05-09T13:01:45.444Z,101861.51
2024-05-09T13:05:36.898Z,101849.15
2024-05-09T13:09:25.635Z,101844.03
2024-05-09T13:13:14.319Z,101843.79
2024-05-09T13:16:48.349Z,101835.39
2024-05-09T13:20:34.466Z,101828.16
2024-05-09T13:24:05.798Z,101823.63
2024-05-09T13:27:52.702Z,101817.91
2024-05-09T13:31:33.662Z,101821.58
2024-05-09T13:34:58.298Z,101816.17
2024-05-09T13:38:39.673Z,101818.41
2024-05-09T13:42:27.909Z,101803.70
2024-05-09T13:46:09.211Z,101803.13
2024-05-09T13:49:57.394Z,101801.98
2024-05-09T13:53:44.203Z,101794.73
2024-05-09T13:57:32.695Z,101788.17
2024-05-09T14:00:52.799Z,101779.86
2024-05-09T14:04:12.587Z,101778.85
2024-05-09T14:07:36.664Z,101773.17
2024-05-09T14:11:05.560Z,101780.92
2024-05-09T14:14:53.002Z,101772.02
2024-05-09T14:18:30.016Z,101760.37
2024-05-09T14:21:39.116Z,101767.02
2024-05-09T14:25:10.525Z,101761.33
2024-05-09T14:29:07.766Z,101760.89
2024-05-09T14:32:56.470Z,101753.08
2024-05-09T14:36:43.556Z,101749.23
2024-05-09T14:40:31.171Z,101742.71
2024-05-09T14:44:06.852Z,101734.38
2024-05-09T14:47:15.314Z,101727.15
2024-05-09T14:51:03.421Z,101723.30
2024-05-09T14:54:35.625Z,101720.30
2024-05-09T14:58:07.515Z,101728.38
2024-05-09T15:01:30.712Z,101719.05
2024-05-09T15:05:19.731Z,101719.57
2024-05-09T15:09:07.531Z,101723.55
2024-05-09T15:12:21.931Z,101716.89
2024-05-09T15:15:55.334Z,101711.08
2024-05-09T15:19:20.868Z,101706.27
2024-05-09T15:22:58.102Z,101701.27
2024-05-09T15:26:18.952Z,101701.41
2024-05-09T15:29:57.281Z,101697.38
2024-05-09T15:33:15.464Z,101690.36
2024-05-09T15:36:43.341Z,101685.49
2024-05-09T15:40:30.536Z,101680.63
2024-05-09T15:44:19.801Z,101673.29
2024-05-09T15:48:00.125Z,101670.29
2024-05-09T15:51:39.298Z,101673.80
2024-05-09T15:54:54.777Z,101676.32
2024-05-09T15:57:54.504Z,101676.70
2024-05-09T16:01:23.183Z,101676.90
2024-05-09T16:04:54.279Z,101673.71
2024-05-09T16:08:34.891Z,101674.98
2024-05-09T16:11:53.026Z,101659.44
2024-05-09T16:15:16.030Z,101654.06
2024-05-09T16:18:46.783Z,101656.14
2024-05-09T16:22:21.569Z,101655.83
2024-05-09T16:26:10.814Z,101650.13
2024-05-09T16:29:50.100Z,101645.53
2024-05-09T16:33:25.643Z,101638.66
2024-05-09T16:36:51.386Z,101639.25
2024-05-09T16:40:29.358Z,101638.27
2024-05-09T16:44:04.635Z,101639.31
2024-05-09T16:47:24.754Z,101641.52
2024-05-09T16:51:03.701Z,101642.95
2024-05-09T16:54:36.558Z,101644.50
2024-05-09T16:58:12.807Z,101640.94
2024-05-09T17:01:43.298Z,101635.48
2024-05-09T17:05:33.560Z,101634.84
2024-05-09T17:08:55.622Z,101632.84
2024-05-09T17:12:26.512Z,101629.80
2024-05-09T17:15:33.442Z,101630.90
2024-05-09T17:19:15.144Z,101639.97
2024-05-09T17:22:45.709Z,101633.95
2024-05-09T17:26:24.274Z,101626.54
2024-05-09T17:30:00.693Z,101628.20
2024-05-09T17:33:48.962Z,101629.00
2024-05-09T17:37:29.947Z,101623.54
2024-05-09T17:40:58.176Z,101630.10
2024-05-09T17:44:30.964Z,101628.29
2024-05-09T17:47:57.811Z,101629.39
2024-05-09T17:51:27.512Z,101629.35
2024-05-09T17:54:53.096Z,101629.92
2024-05-09T17:58:26.649Z,101629.70
2024-05-09T18:01:45.134Z,101637.46
2024-05-09T18:04:46.948Z,101634.73
2024-05-09T18:08:06.579Z,101633.64
2024-05-09T18:11:26.455Z,101631.36
2024-05-09T18:14:37.584Z,101629.84
2024-05-09T18:18:07.524Z,101628.58
2024-05-09T18:21:29.837Z,101632.13
2024-05-09T18:24:57.699Z,101630.48
2024-05-09T18:28:18.844Z,101630.92
2024-05-09T18:31:58.698Z,101632.35
2024-05-09T18:35:33.971Z,101637.49
2024-05-09T18:39:04.979Z,101643.45
2024-05-09T18:42:01.323Z,101644.20
2024-05-09T18:45:34.831Z,101640.73
2024-05-09T18:48:57.379Z,101649.27
2024-05-09T18:51:53.738Z,101650.95
2024-05-09T18:55:22.496Z,101654.21
2024-05-09T18:58:55.025Z,101657.32
2024-05-09T19:02:18.791Z,101655.48
2024-05-09T19:05:36.061Z,101660.67
2024-05-09T19:08:52.831Z,101660.95
2024-05-09T19:12:21.535Z,101665.58
2024-05-09T19:15:31.403Z,101668.55
2024-05-09T19:18:53.750Z,101667.39
2024-05-09T19:22:05.397Z,101665.84
2024-05-09T19:28:39.742Z,101676.11
2024-05-09T19:32:09.633Z,101679.23
2024-05-09T19:35:39.270Z,101676.90
2024-05-09T19:38:53.548Z,101677.42
2024-05-09T19:41:59.925Z,101682.36
2024-05-09T19:44:49.298Z,101679.09
2024-05-09T19:47:43.308Z,101681.59
2024-05-09T19:51:05.582Z,101682.97
2024-05-09T19:54:23.967Z,101682.23
2024-05-09T19:57:19.478Z,101689.41
2024-05-09T20:00:05.942Z,101688.70
2024-05-09T20:03:07.190Z,101684.55
2024-05-09T20:06:31.059Z,101688.18
2024-05-09T20:09:31.407Z,101688.33
2024-05-09T20:13:20.810Z,101686.01
2024-05-09T20:21:05.596Z,101683.07
2024-05-09T20:24:54.482Z,101681.61
2024-05-09T20:28:17.625Z,101684.65
2024-05-09T20:31:29.160Z,101682.05
2024-05-09T20:34:59.159Z,101678.87
2024-05-09T20:38:09.466Z,101680.77
2024-05-09T20:41:39.456Z,101676.58
2024-05-09T20:45:13.747Z,101680.05
2024-05-09T20:48:24.262Z,101677.84
2024-05-09T20:51:37.325Z,101679.91
2024-05-09T20:55:08.468Z,101680.64
2024-05-09T20:58:55.749Z,101682.08
2024-05-09T21:02:43.172Z,101678.11
2024-05-09T21:06:16.685Z,101682.83
2024-05-09T21:09:38.619Z,101681.17
2024-05-09T21:12:37.613Z,101676.19
2024-05-09T21:16:03.209Z,101676.05
2024-05-09T21:19:41.277Z,101677.67
2024-05-09T21:23:05.384Z,101682.75
2024-05-09T21:26:22.256Z,101684.36
2024-05-09T21:29:36.743Z,101688.85
2024-05-09T21:33:15.869Z,101681.99
2024-05-09T21:36:33.983Z,101678.82
2024-05-09T21:39:55.856Z,101679.20
2024-05-09T21:43:26.857Z,101676.90
2024-05-09T21:47:13.342Z,101675.13
2024-05-09T21:51:01.295Z,101673.80
2024-05-09T21:54:01.133Z,101668.77
2024-05-09T21:57:14.747Z,101671.19
2024-05-09T22:00:08.485Z,101671.90
2024-05-09T22:03:56.474Z,101674.38
2024-05-09T22:06:41.393Z,101673.90
2024-05-09T22:09:59.684Z,101672.34
2024-05-09T22:13:31.690Z,101669.17
2024-05-09T22:16:26.685Z,101671.27
2024-05-09T22:19:07.549Z,101670.06
2024-05-09T22:22:21.145Z,101667.89
2024-05-09T22:25:22.343Z,101670.34
2024-05-09T22:27:59.927Z,101670.79
2024-05-09T22:30:56.187Z,101669.52
2024-05-09T22:33:42.670Z,101670.15
2024-05-09T22:36:32.426Z,101667.69
2024-05-09T22:39:30.766Z,101668.63
2024-05-09T22:42:17.416Z,101668.57
2024-05-09T22:45:46.311Z,101672.23
2024-05-09T22:48:42.176Z,101672.80
2024-05-09T22:51:42.117Z,101667.87
2024-05-09T22:54:09.606Z,101666.34
2024-05-09T22:57:12.314Z,101663.59
2024-05-09T23:00:38.446Z,101663.70
2024-05-09T23:03:21.997Z,101659.74
2024-05-09T23:06:55.337Z,101661.51
2024-05-09T23:10:00.811Z,101663.02
2024-05-09T23:13:25.135Z,101660.27
2024-05-09T23:16:44.963Z,101660.43
2024-05-09T23:19:57.436Z,101658.23
2024-05-09T23:23:40.846Z,101656.61
2024-05-09T23:27:08.862Z,101648.29
2024-05-09T23:30:37.465Z,101647.58
2024-05-09T23:34:00.280Z,101641.52
2024-05-09T23:37:12.550Z,101639.44
2024-05-09T23:40:41.030Z,101638.19
2024-05-09T23:43:52.332Z,101633.15
2024-05-09T23:47:02.884Z,101631.56
2024-05-09T23:49:56.544Z,101626.52
2024-05-09T23:53:18.562Z,101629.55
2024-05-09T23:56:59.870Z,101633.75
2024-05-09T23:59:48.893Z,101633.23
